sensor_id;sensor_type;location;lat;lon;timestamp;pressure;altitude;pressure_sealevel;temperature;humidity
56420;BME280;42323;52.170;7.538;2023-06-22T00:01:13;101494.56;;;20.42;nan
56420;BME280;42323;52.170;7.538;2023-06-22T00:03:40;101485.81;;;20.35;nan
56420;BME280;42323;52.170;7.538;2023-06-22T00:06:07;101477.69;;;20.30;nan
56420;BME280;42323;52.170;7.538;2023-06-22T00:08:33;101483.66;;;20.25;nan
56420;BME280;42323;52.170;7.538;2023-06-22T00:11:00;101491.63;;;20.25;nan
56420;BME280;42323;52.170;7.538;2023-06-22T00:13:26;101482.66;;;20.20;nan
56420;BME280;42323;52.170;7.538;2023-06-22T00:15:53;101488.44;;;20.17;nan
56420;BME280;42323;52.170;7.538;2023-06-22T00:18:20;101457.47;;;19.97;nan
56420;BME280;42323;52.170;7.538;2023-06-22T00:20:46;101469.75;;;19.98;nan
56420;BME280;42323;52.170;7.538;2023-06-22T00:23:13;101462.66;;;19.92;nan
56420;BME280;42323;52.170;7.538;2023-06-22T00:25:43;101469.97;;;19.97;nan
56420;BME280;42323;52.170;7.538;2023-06-22T00:28:10;101458.03;;;19.81;nan
56420;BME280;42323;52.170;7.538;2023-06-22T00:30:36;101462.13;;;19.77;nan
56420;BME280;42323;52.170;7.538;2023-06-22T00:33:03;101454.00;;;19.72;nan
56420;BME280;42323;52.170;7.538;2023-06-22T00:35:29;101442.31;;;19.73;nan
56420;BME280;42323;52.170;7.538;2023-06-22T00:37:57;101451.50;;;19.77;nan
56420;BME280;42323;52.170;7.538;2023-06-22T00:40:28;101449.28;;;19.74;nan
56420;BME280;42323;52.170;7.538;2023-06-22T00:42:55;101452.97;;;19.73;nan
56420;BME280;42323;52.170;7.538;2023-06-22T00:45:23;101456.25;;;19.75;nan
56420;BME280;42323;52.170;7.538;2023-06-22T00:47:57;101454.00;;;19.72;nan
56420;BME280;42323;52.170;7.538;2023-06-22T00:50:26;101458.50;;;19.71;nan
56420;BME280;42323;52.170;7.538;2023-06-22T00:52:59;101444.81;;;19.68;nan
56420;BME280;42323;52.170;7.538;2023-06-22T00:55:27;101437.94;;;19.53;nan
56420;BME280;42323;52.170;7.538;2023-06-22T00:57:54;101455.53;;;19.61;nan
56420;BME280;42323;52.170;7.538;2023-06-22T01:00:24;101449.56;;;19.59;nan
56420;BME280;42323;52.170;7.538;2023-06-22T01:02:52;101450.22;;;19.61;nan
56420;BME280;42323;52.170;7.538;2023-06-22T01:05:22;101423.72;;;19.41;nan
56420;BME280;42323;52.170;7.538;2023-06-22T01:07:58;101455.69;;;19.60;nan
56420;BME280;42323;52.170;7.538;2023-06-22T01:16:24;101453.75;;;19.48;nan
56420;BME280;42323;52.170;7.538;2023-06-22T01:18:55;101447.25;;;19.38;nan
56420;BME280;42323;52.170;7.538;2023-06-22T01:21:26;101444.41;;;19.39;nan
56420;BME280;42323;52.170;7.538;2023-06-22T01:26:37;101450.94;;;19.37;nan
56420;BME280;42323;52.170;7.538;2023-06-22T01:29:05;101460.16;;;19.34;nan
56420;BME280;42323;52.170;7.538;2023-06-22T01:31:34;101461.81;;;19.35;nan
56420;BME280;42323;52.170;7.538;2023-06-22T01:34:05;101457.94;;;19.31;nan
56420;BME280;42323;52.170;7.538;2023-06-22T01:36:33;101434.28;;;19.23;nan
56420;BME280;42323;52.170;7.538;2023-06-22T01:39:00;101445.69;;;19.30;nan
56420;BME280;42323;52.170;7.538;2023-06-22T01:41:29;101444.03;;;19.29;nan
56420;BME280;42323;52.170;7.538;2023-06-22T01:43:56;101426.53;;;19.21;nan
56420;BME280;42323;52.170;7.538;2023-06-22T01:46:23;101434.84;;;19.25;nan
56420;BME280;42323;52.170;7.538;2023-06-22T01:48:50;101447.88;;;19.33;nan
56420;BME280;42323;52.170;7.538;2023-06-22T01:51:17;101438.78;;;19.22;nan
56420;BME280;42323;52.170;7.538;2023-06-22T01:53:44;101426.56;;;19.08;nan
56420;BME280;42323;52.170;7.538;2023-06-22T01:56:10;101437.59;;;19.12;nan
56420;BME280;42323;52.170;7.538;2023-06-22T01:58:42;101444.97;;;19.10;nan
56420;BME280;42323;52.170;7.538;2023-06-22T02:01:13;101455.59;;;19.10;nan
56420;BME280;42323;52.170;7.538;2023-06-22T02:03:48;101430.53;;;18.92;nan
56420;BME280;42323;52.170;7.538;2023-06-22T02:06:21;101435.22;;;18.90;nan
56420;BME280;42323;52.170;7.538;2023-06-22T02:08:55;101441.16;;;18.92;nan
56420;BME280;42323;52.170;7.538;2023-06-22T02:11:25;101450.94;;;18.98;nan
56420;BME280;42323;52.170;7.538;2023-06-22T02:13:53;101431.81;;;18.83;nan
56420;BME280;42323;52.170;7.538;2023-06-22T02:16:22;101454.00;;;18.95;nan
56420;BME280;42323;52.170;7.538;2023-06-22T02:18:50;101426.91;;;18.80;nan
56420;BME280;42323;52.170;7.538;2023-06-22T02:21:20;101434.00;;;18.93;nan
56420;BME280;42323;52.170;7.538;2023-06-22T02:23:47;101431.13;;;18.94;nan
56420;BME280;42323;52.170;7.538;2023-06-22T02:26:16;101437.66;;;18.98;nan
56420;BME280;42323;52.170;7.538;2023-06-22T02:28:43;101436.88;;;18.91;nan
56420;BME280;42323;52.170;7.538;2023-06-22T02:31:10;101440.13;;;18.93;nan
56420;BME280;42323;52.170;7.538;2023-06-22T02:33:37;101426.69;;;18.88;nan
56420;BME280;42323;52.170;7.538;2023-06-22T02:36:04;101442.63;;;18.88;nan
56420;BME280;42323;52.170;7.538;2023-06-22T02:38:31;101428.94;;;18.85;nan
56420;BME280;42323;52.170;7.538;2023-06-22T02:41:02;101423.28;;;18.74;nan
56420;BME280;42323;52.170;7.538;2023-06-22T02:43:29;101440.19;;;18.80;nan
56420;BME280;42323;52.170;7.538;2023-06-22T02:45:55;101425.94;;;18.74;nan
56420;BME280;42323;52.170;7.538;2023-06-22T02:48:22;101429.41;;;18.75;nan
56420;BME280;42323;52.170;7.538;2023-06-22T02:50:48;101424.09;;;18.75;nan
56420;BME280;42323;52.170;7.538;2023-06-22T02:53:15;101427.78;;;18.74;nan
56420;BME280;42323;52.170;7.538;2023-06-22T02:55:42;101440.59;;;18.84;nan
56420;BME280;42323;52.170;7.538;2023-06-22T02:58:08;101421.03;;;18.71;nan
56420;BME280;42323;52.170;7.538;2023-06-22T03:00:35;101424.28;;;18.67;nan
56420;BME280;42323;52.170;7.538;2023-06-22T03:03:02;101435.28;;;18.77;nan
56420;BME280;42323;52.170;7.538;2023-06-22T03:05:28;101439.38;;;18.79;nan
56420;BME280;42323;52.170;7.538;2023-06-22T03:07:55;101447.31;;;18.86;nan
56420;BME280;42323;52.170;7.538;2023-06-22T03:10:21;101392.47;;;18.53;nan
56420;BME280;42323;52.170;7.538;2023-06-22T03:12:48;101446.09;;;18.82;nan
56420;BME280;42323;52.170;7.538;2023-06-22T03:15:14;101438.38;;;18.74;nan
56420;BME280;42323;52.170;7.538;2023-06-22T03:17:41;101433.06;;;18.67;nan
56420;BME280;42323;52.170;7.538;2023-06-22T03:20:09;101451.22;;;18.77;nan
56420;BME280;42323;52.170;7.538;2023-06-22T03:22:38;101435.13;;;18.65;nan
56420;BME280;42323;52.170;7.538;2023-06-22T03:25:05;101448.75;;;18.69;nan
56420;BME280;42323;52.170;7.538;2023-06-22T03:27:40;101431.25;;;18.61;nan
56420;BME280;42323;52.170;7.538;2023-06-22T03:30:09;101436.75;;;18.66;nan
56420;BME280;42323;52.170;7.538;2023-06-22T03:32:39;101438.81;;;18.71;nan
56420;BME280;42323;52.170;7.538;2023-06-22T03:35:06;101399.00;;;18.51;nan
56420;BME280;42323;52.170;7.538;2023-06-22T03:37:33;101399.81;;;18.51;nan
56420;BME280;42323;52.170;7.538;2023-06-22T03:39:59;101432.84;;;18.69;nan
56420;BME280;42323;52.170;7.538;2023-06-22T03:42:26;101409.00;;;18.55;nan
56420;BME280;42323;52.170;7.538;2023-06-22T03:44:53;101417.78;;;18.56;nan
56420;BME280;42323;52.170;7.538;2023-06-22T03:47:19;101425.94;;;18.61;nan
56420;BME280;42323;52.170;7.538;2023-06-22T03:49:46;101432.03;;;18.68;nan
56420;BME280;42323;52.170;7.538;2023-06-22T03:52:13;101429.22;;;18.70;nan
56420;BME280;42323;52.170;7.538;2023-06-22T03:54:39;101437.53;;;18.73;nan
56420;BME280;42323;52.170;7.538;2023-06-22T03:57:06;101426.94;;;18.73;nan
56420;BME280;42323;52.170;7.538;2023-06-22T03:59:33;101422.47;;;18.74;nan
56420;BME280;42323;52.170;7.538;2023-06-22T04:01:59;101416.94;;;18.62;nan
56420;BME280;42323;52.170;7.538;2023-06-22T04:04:26;101429.59;;;18.73;nan
56420;BME280;42323;52.170;7.538;2023-06-22T04:06:54;101426.13;;;18.66;nan
56420;BME280;42323;52.170;7.538;2023-06-22T04:09:21;101435.72;;;18.74;nan
56420;BME280;42323;52.170;7.538;2023-06-22T04:11:48;101401.47;;;18.52;nan
56420;BME280;42323;52.170;7.538;2023-06-22T04:14:14;101392.66;;;18.59;nan
56420;BME280;42323;52.170;7.538;2023-06-22T04:16:41;101400.63;;;18.59;nan
56420;BME280;42323;52.170;7.538;2023-06-22T04:19:08;101363.91;;;18.42;nan
56420;BME280;42323;52.170;7.538;2023-06-22T04:21:40;101396.34;;;18.58;nan
56420;BME280;42323;52.170;7.538;2023-06-22T04:24:07;101408.56;;;18.72;nan
56420;BME280;42323;52.170;7.538;2023-06-22T04:26:33;101419.53;;;18.82;nan
56420;BME280;42323;52.170;7.538;2023-06-22T04:29:04;101411.16;;;18.85;nan
56420;BME280;42323;52.170;7.538;2023-06-22T04:31:32;101419.47;;;18.95;nan
56420;BME280;42323;52.170;7.538;2023-06-22T04:34:07;101431.28;;;19.06;nan
56420;BME280;42323;52.170;7.538;2023-06-22T04:36:39;101420.44;;;19.08;nan
56420;BME280;42323;52.170;7.538;2023-06-22T04:39:09;101422.03;;;19.15;nan
56420;BME280;42323;52.170;7.538;2023-06-22T04:41:37;101423.66;;;19.16;nan
56420;BME280;42323;52.170;7.538;2023-06-22T04:44:15;101395.94;;;19.05;nan
56420;BME280;42323;52.170;7.538;2023-06-22T04:46:53;101397.97;;;19.10;nan
56420;BME280;42323;52.170;7.538;2023-06-22T04:49:21;101419.91;;;19.30;nan
56420;BME280;42323;52.170;7.538;2023-06-22T04:51:48;101404.97;;;19.29;nan
56420;BME280;42323;52.170;7.538;2023-06-22T04:54:16;101400.31;;;19.25;nan
56420;BME280;42323;52.170;7.538;2023-06-22T04:56:42;101397.84;;;19.30;nan
56420;BME280;42323;52.170;7.538;2023-06-22T04:59:09;101384.72;;;19.35;nan
56420;BME280;42323;52.170;7.538;2023-06-22T05:01:39;101391.53;;;19.56;nan
56420;BME280;42323;52.170;7.538;2023-06-22T05:04:06;101397.41;;;19.65;nan
56420;BME280;42323;52.170;7.538;2023-06-22T05:06:33;101394.09;;;19.69;nan
56420;BME280;42323;52.170;7.538;2023-06-22T05:09:00;101403.97;;;19.87;nan
56420;BME280;42323;52.170;7.538;2023-06-22T05:11:27;101405.31;;;19.96;nan
56420;BME280;42323;52.170;7.538;2023-06-22T05:13:54;101395.34;;;19.92;nan
56420;BME280;42323;52.170;7.538;2023-06-22T05:16:21;101405.47;;;20.01;nan
56420;BME280;42323;52.170;7.538;2023-06-22T05:18:52;101376.09;;;19.90;nan
56420;BME280;42323;52.170;7.538;2023-06-22T05:21:24;101406.22;;;20.09;nan
56420;BME280;42323;52.170;7.538;2023-06-22T05:23:52;101397.72;;;20.00;nan
56420;BME280;42323;52.170;7.538;2023-06-22T05:26:20;101387.06;;;20.00;nan
56420;BME280;42323;52.170;7.538;2023-06-22T05:28:47;101396.59;;;20.08;nan
56420;BME280;42323;52.170;7.538;2023-06-22T05:31:15;101393.13;;;20.07;nan
56420;BME280;42323;52.170;7.538;2023-06-22T05:33:43;101386.63;;;20.03;nan
56420;BME280;42323;52.170;7.538;2023-06-22T05:36:10;101384.63;;;19.98;nan
56420;BME280;42323;52.170;7.538;2023-06-22T05:38:36;101377.25;;;20.00;nan
56420;BME280;42323;52.170;7.538;2023-06-22T05:41:03;101395.88;;;20.19;nan
56420;BME280;42323;52.170;7.538;2023-06-22T05:43:30;101392.63;;;20.17;nan
56420;BME280;42323;52.170;7.538;2023-06-22T05:45:57;101406.66;;;20.24;nan
56420;BME280;42323;52.170;7.538;2023-06-22T05:48:24;101382.28;;;20.09;nan
56420;BME280;42323;52.170;7.538;2023-06-22T05:50:51;101401.50;;;20.29;nan
56420;BME280;42323;52.170;7.538;2023-06-22T05:53:18;101409.00;;;20.39;nan
56420;BME280;42323;52.170;7.538;2023-06-22T05:55:44;101389.53;;;20.38;nan
56420;BME280;42323;52.170;7.538;2023-06-22T05:58:11;101385.75;;;20.46;nan
56420;BME280;42323;52.170;7.538;2023-06-22T06:00:40;101383.28;;;20.51;nan
56420;BME280;42323;52.170;7.538;2023-06-22T06:03:08;101368.25;;;20.57;nan
56420;BME280;42323;52.170;7.538;2023-06-22T06:05:35;101405.94;;;20.90;nan
56420;BME280;42323;52.170;7.538;2023-06-22T06:08:04;101403.16;;;20.97;nan
56420;BME280;42323;52.170;7.538;2023-06-22T06:10:32;101382.16;;;20.89;nan
56420;BME280;42323;52.170;7.538;2023-06-22T06:13:01;101400.91;;;21.12;nan
56420;BME280;42323;52.170;7.538;2023-06-22T06:15:32;101335.44;;;20.74;nan
56420;BME280;42323;52.170;7.538;2023-06-22T06:20:40;101365.47;;;21.23;nan
56420;BME280;42323;52.170;7.538;2023-06-22T06:23:10;101331.50;;;21.19;nan
56420;BME280;42323;52.170;7.538;2023-06-22T06:25:55;101357.66;;;21.52;nan
56420;BME280;42323;52.170;7.538;2023-06-22T06:28:27;101355.00;;;21.64;nan
56420;BME280;42323;52.170;7.538;2023-06-22T06:31:00;101390.50;;;21.99;nan
56420;BME280;42323;52.170;7.538;2023-06-22T06:33:27;101410.94;;;22.17;nan
56420;BME280;42323;52.170;7.538;2023-06-22T06:35:57;101408.84;;;22.31;nan
56420;BME280;42323;52.170;7.538;2023-06-22T06:38:25;101370.56;;;22.14;nan
56420;BME280;42323;52.170;7.538;2023-06-22T06:40:52;101356.38;;;22.25;nan
56420;BME280;42323;52.170;7.538;2023-06-22T06:43:39;101390.69;;;22.45;nan
56420;BME280;42323;52.170;7.538;2023-06-22T06:46:09;101331.28;;;22.26;nan
56420;BME280;42323;52.170;7.538;2023-06-22T06:48:36;101332.44;;;22.30;nan
56420;BME280;42323;52.170;7.538;2023-06-22T06:51:23;101340.28;;;22.48;nan
56420;BME280;42323;52.170;7.538;2023-06-22T06:53:59;101303.50;;;22.39;nan
56420;BME280;42323;52.170;7.538;2023-06-22T06:56:29;101381.72;;;22.91;nan
56420;BME280;42323;52.170;7.538;2023-06-22T06:58:57;101400.16;;;23.04;nan
56420;BME280;42323;52.170;7.538;2023-06-22T07:01:25;101396.53;;;23.11;nan
56420;BME280;42323;52.170;7.538;2023-06-22T07:03:52;101386.38;;;23.13;nan
56420;BME280;42323;52.170;7.538;2023-06-22T07:06:20;101415.69;;;23.36;nan
56420;BME280;42323;52.170;7.538;2023-06-22T07:09:00;101374.41;;;23.15;nan
56420;BME280;42323;52.170;7.538;2023-06-22T07:11:27;101386.16;;;23.31;nan
56420;BME280;42323;52.170;7.538;2023-06-22T07:14:00;101385.94;;;23.33;nan
56420;BME280;42323;52.170;7.538;2023-06-22T07:16:28;101349.22;;;23.11;nan
56420;BME280;42323;52.170;7.538;2023-06-22T07:19:02;101377.00;;;23.44;nan
56420;BME280;42323;52.170;7.538;2023-06-22T07:21:35;101387.59;;;23.67;nan
56420;BME280;42323;52.170;7.538;2023-06-22T07:24:02;101372.81;;;23.65;nan
56420;BME280;42323;52.170;7.538;2023-06-22T07:26:28;101362.84;;;23.77;nan
56420;BME280;42323;52.170;7.538;2023-06-22T07:29:03;101280.88;;;23.37;nan
56420;BME280;42323;52.170;7.538;2023-06-22T07:31:50;101295.59;;;23.57;nan
56420;BME280;42323;52.170;7.538;2023-06-22T07:34:19;101272.50;;;23.50;nan
56420;BME280;42323;52.170;7.538;2023-06-22T07:36:45;101382.88;;;24.13;nan
56420;BME280;42323;52.170;7.538;2023-06-22T07:39:12;101282.47;;;23.55;nan
56420;BME280;42323;52.170;7.538;2023-06-22T07:41:42;101266.03;;;23.46;nan
56420;BME280;42323;52.170;7.538;2023-06-22T07:44:09;101295.22;;;23.65;nan
56420;BME280;42323;52.170;7.538;2023-06-22T07:46:39;101259.06;;;23.45;nan
56420;BME280;42323;52.170;7.538;2023-06-22T07:49:05;101330.63;;;23.89;nan
56420;BME280;42323;52.170;7.538;2023-06-22T07:51:37;101284.41;;;23.60;nan
56420;BME280;42323;52.170;7.538;2023-06-22T07:54:05;101319.84;;;23.84;nan
56420;BME280;42323;52.170;7.538;2023-06-22T07:56:32;101388.00;;;24.15;nan
56420;BME280;42323;52.170;7.538;2023-06-22T07:58:59;101282.22;;;23.57;nan
56420;BME280;42323;52.170;7.538;2023-06-22T08:01:27;101298.91;;;23.64;nan
56420;BME280;42323;52.170;7.538;2023-06-22T08:03:55;101379.22;;;24.19;nan
56420;BME280;42323;52.170;7.538;2023-06-22T08:06:22;101293.41;;;23.70;nan
56420;BME280;42323;52.170;7.538;2023-06-22T08:08:49;101380.47;;;24.34;nan
56420;BME280;42323;52.170;7.538;2023-06-22T08:11:21;101302.91;;;24.00;nan
56420;BME280;42323;52.170;7.538;2023-06-22T08:14:05;101349.63;;;24.31;nan
56420;BME280;42323;52.170;7.538;2023-06-22T08:16:45;101376.22;;;24.60;nan
56420;BME280;42323;52.170;7.538;2023-06-22T08:19:12;101340.00;;;24.35;nan
56420;BME280;42323;52.170;7.538;2023-06-22T08:21:39;101377.84;;;24.61;nan
56420;BME280;42323;52.170;7.538;2023-06-22T08:24:07;101318.78;;;24.28;nan
56420;BME280;42323;52.170;7.538;2023-06-22T08:26:34;101316.25;;;24.39;nan
56420;BME280;42323;52.170;7.538;2023-06-22T08:29:32;101363.47;;;24.67;nan
56420;BME280;42323;52.170;7.538;2023-06-22T08:35:16;101348.75;;;24.47;nan
56420;BME280;42323;52.170;7.538;2023-06-22T08:38:12;101281.09;;;24.13;nan
56420;BME280;42323;52.170;7.538;2023-06-22T08:40:42;101308.38;;;24.32;nan
56420;BME280;42323;52.170;7.538;2023-06-22T08:43:10;101339.47;;;24.55;nan
56420;BME280;42323;52.170;7.538;2023-06-22T08:45:37;101293.91;;;24.33;nan
56420;BME280;42323;52.170;7.538;2023-06-22T08:48:07;101357.13;;;24.78;nan
56420;BME280;42323;52.170;7.538;2023-06-22T08:50:36;101328.34;;;24.68;nan
56420;BME280;42323;52.170;7.538;2023-06-22T08:53:04;101319.53;;;24.73;nan
56420;BME280;42323;52.170;7.538;2023-06-22T08:55:31;101251.69;;;24.67;nan
56420;BME280;42323;52.170;7.538;2023-06-22T08:58:09;101332.97;;;25.32;nan
56420;BME280;42323;52.170;7.538;2023-06-22T09:00:41;101292.91;;;25.25;nan
56420;BME280;42323;52.170;7.538;2023-06-22T09:03:08;101233.31;;;25.13;nan
56420;BME280;42323;52.170;7.538;2023-06-22T09:05:36;101287.31;;;25.69;nan
56420;BME280;42323;52.170;7.538;2023-06-22T09:08:04;101314.63;;;26.09;nan
56420;BME280;42323;52.170;7.538;2023-06-22T09:10:46;101313.03;;;26.13;nan
56420;BME280;42323;52.170;7.538;2023-06-22T09:13:16;101282.34;;;26.03;nan
56420;BME280;42323;52.170;7.538;2023-06-22T09:15:43;101286.72;;;26.15;nan
56420;BME280;42323;52.170;7.538;2023-06-22T09:18:13;101285.44;;;26.43;nan
56420;BME280;42323;52.170;7.538;2023-06-22T09:20:40;101259.94;;;26.45;nan
56420;BME280;42323;52.170;7.538;2023-06-22T09:23:08;101250.25;;;26.49;nan
56420;BME280;42323;52.170;7.538;2023-06-22T09:25:35;101224.69;;;26.42;nan
56420;BME280;42323;52.170;7.538;2023-06-22T09:28:03;101195.41;;;26.30;nan
56420;BME280;42323;52.170;7.538;2023-06-22T09:30:30;101302.75;;;27.18;nan
56420;BME280;42323;52.170;7.538;2023-06-22T09:32:57;101214.78;;;26.88;nan
56420;BME280;42323;52.170;7.538;2023-06-22T09:35:24;101262.38;;;27.23;nan
56420;BME280;42323;52.170;7.538;2023-06-22T09:37:51;101251.34;;;27.20;nan
56420;BME280;42323;52.170;7.538;2023-06-22T09:40:20;101297.31;;;27.59;nan
56420;BME280;42323;52.170;7.538;2023-06-22T09:42:46;101289.19;;;27.69;nan
56420;BME280;42323;52.170;7.538;2023-06-22T09:45:13;101269.00;;;27.77;nan
56420;BME280;42323;52.170;7.538;2023-06-22T09:47:39;101260.09;;;27.66;nan
56420;BME280;42323;52.170;7.538;2023-06-22T09:50:07;101287.84;;;27.62;nan
56420;BME280;42323;52.170;7.538;2023-06-22T09:52:34;101291.09;;;27.54;nan
56420;BME280;42323;52.170;7.538;2023-06-22T09:55:13;101277.44;;;27.35;nan
56420;BME280;42323;52.170;7.538;2023-06-22T09:57:45;101288.16;;;27.45;nan
56420;BME280;42323;52.170;7.538;2023-06-22T10:00:13;101279.28;;;27.49;nan
56420;BME280;42323;52.170;7.538;2023-06-22T10:02:43;101273.38;;;27.47;nan
56420;BME280;42323;52.170;7.538;2023-06-22T10:05:10;101273.38;;;27.47;nan
56420;BME280;42323;52.170;7.538;2023-06-22T10:07:38;101259.34;;;27.56;nan
56420;BME280;42323;52.170;7.538;2023-06-22T10:10:11;101277.59;;;27.69;nan
56420;BME280;42323;52.170;7.538;2023-06-22T10:12:45;101271.97;;;27.60;nan
56420;BME280;42323;52.170;7.538;2023-06-22T10:15:12;101270.63;;;27.58;nan
56420;BME280;42323;52.170;7.538;2023-06-22T10:17:39;101252.88;;;27.51;nan
56420;BME280;42323;52.170;7.538;2023-06-22T10:20:07;101236.91;;;27.70;nan
56420;BME280;42323;52.170;7.538;2023-06-22T10:22:40;101265.56;;;28.11;nan
56420;BME280;42323;52.170;7.538;2023-06-22T10:25:08;101236.53;;;28.03;nan
56420;BME280;42323;52.170;7.538;2023-06-22T10:27:35;101263.09;;;28.19;nan
56420;BME280;42323;52.170;7.538;2023-06-22T10:30:02;101254.91;;;27.95;nan
56420;BME280;42323;52.170;7.538;2023-06-22T10:32:29;101259.03;;;27.62;nan
56420;BME280;42323;52.170;7.538;2023-06-22T10:34:55;101258.84;;;27.43;nan
56420;BME280;42323;52.170;7.538;2023-06-22T10:37:25;101260.97;;;27.41;nan
56420;BME280;42323;52.170;7.538;2023-06-22T10:39:51;101253.47;;;27.38;nan
56420;BME280;42323;52.170;7.538;2023-06-22T10:42:18;101255.09;;;27.24;nan
56420;BME280;42323;52.170;7.538;2023-06-22T10:44:44;101239.78;;;26.94;nan
56420;BME280;42323;52.170;7.538;2023-06-22T10:47:11;101186.78;;;26.33;nan
56420;BME280;42323;52.170;7.538;2023-06-22T10:49:38;101162.56;;;26.02;nan
56420;BME280;42323;52.170;7.538;2023-06-22T10:52:09;101173.59;;;26.06;nan
56420;BME280;42323;52.170;7.538;2023-06-22T10:54:45;101151.00;;;25.92;nan
56420;BME280;42323;52.170;7.538;2023-06-22T10:57:29;101168.50;;;26.05;nan
56420;BME280;42323;52.170;7.538;2023-06-22T11:00:02;101206.94;;;26.31;nan
56420;BME280;42323;52.170;7.538;2023-06-22T11:02:34;101233.06;;;26.45;nan
56420;BME280;42323;52.170;7.538;2023-06-22T11:05:13;101204.50;;;26.29;nan
56420;BME280;42323;52.170;7.538;2023-06-22T11:07:44;101199.41;;;26.27;nan
56420;BME280;42323;52.170;7.538;2023-06-22T11:10:17;101179.25;;;26.20;nan
56420;BME280;42323;52.170;7.538;2023-06-22T11:12:55;101176.81;;;26.08;nan
56420;BME280;42323;52.170;7.538;2023-06-22T11:15:23;101245.97;;;26.54;nan
56420;BME280;42323;52.170;7.538;2023-06-22T11:17:49;101232.50;;;26.43;nan
56420;BME280;42323;52.170;7.538;2023-06-22T11:20:18;101231.16;;;26.46;nan
56420;BME280;42323;52.170;7.538;2023-06-22T11:22:45;101231.72;;;26.63;nan
56420;BME280;42323;52.170;7.538;2023-06-22T11:25:11;101228.22;;;26.68;nan
56420;BME280;42323;52.170;7.538;2023-06-22T11:27:38;101221.25;;;26.82;nan
56420;BME280;42323;52.170;7.538;2023-06-22T11:30:06;101198.91;;;26.87;nan
56420;BME280;42323;52.170;7.538;2023-06-22T11:32:33;101186.53;;;26.86;nan
56420;BME280;42323;52.170;7.538;2023-06-22T11:35:00;101190.28;;;27.10;nan
56420;BME280;42323;52.170;7.538;2023-06-22T11:37:27;101183.00;;;27.21;nan
56420;BME280;42323;52.170;7.538;2023-06-22T11:39:54;101182.91;;;27.41;nan
56420;BME280;42323;52.170;7.538;2023-06-22T11:42:31;101181.44;;;27.74;nan
56420;BME280;42323;52.170;7.538;2023-06-22T11:44:58;101180.56;;;28.68;nan
56420;BME280;42323;52.170;7.538;2023-06-22T11:47:25;101181.56;;;29.06;nan
56420;BME280;42323;52.170;7.538;2023-06-22T11:49:51;101183.44;;;29.30;nan
56420;BME280;42323;52.170;7.538;2023-06-22T11:52:18;101174.34;;;29.68;nan
56420;BME280;42323;52.170;7.538;2023-06-22T11:54:45;101162.00;;;29.62;nan
56420;BME280;42323;52.170;7.538;2023-06-22T11:57:12;101173.25;;;29.45;nan
56420;BME280;42323;52.170;7.538;2023-06-22T11:59:39;101172.53;;;29.16;nan
56420;BME280;42323;52.170;7.538;2023-06-22T12:02:15;101160.22;;;28.75;nan
56420;BME280;42323;52.170;7.538;2023-06-22T12:05:21;101183.22;;;28.34;nan
56420;BME280;42323;52.170;7.538;2023-06-22T12:07:57;101144.25;;;27.71;nan
56420;BME280;42323;52.170;7.538;2023-06-22T12:10:35;101132.03;;;27.40;nan
56420;BME280;42323;52.170;7.538;2023-06-22T12:13:02;101132.97;;;27.10;nan
56420;BME280;42323;52.170;7.538;2023-06-22T12:16:05;101162.53;;;27.15;nan
56420;BME280;42323;52.170;7.538;2023-06-22T12:18:47;101182.44;;;27.24;nan
56420;BME280;42323;52.170;7.538;2023-06-22T12:21:14;101186.75;;;27.20;nan
56420;BME280;42323;52.170;7.538;2023-06-22T12:23:40;101183.00;;;27.16;nan
56420;BME280;42323;52.170;7.538;2023-06-22T12:26:07;101164.47;;;27.09;nan
56420;BME280;42323;52.170;7.538;2023-06-22T12:28:33;101179.22;;;27.07;nan
56420;BME280;42323;52.170;7.538;2023-06-22T12:31:00;101185.44;;;26.92;nan
56420;BME280;42323;52.170;7.538;2023-06-22T12:33:30;101189.50;;;26.79;nan
56420;BME280;42323;52.170;7.538;2023-06-22T12:35:59;101122.28;;;26.28;nan
56420;BME280;42323;52.170;7.538;2023-06-22T12:38:43;101188.41;;;26.60;nan
56420;BME280;42323;52.170;7.538;2023-06-22T12:41:10;101186.53;;;26.35;nan
56420;BME280;42323;52.170;7.538;2023-06-22T12:43:36;101173.06;;;26.09;nan
56420;BME280;42323;52.170;7.538;2023-06-22T12:46:03;101172.78;;;25.95;nan
56420;BME280;42323;52.170;7.538;2023-06-22T12:48:30;101179.75;;;25.91;nan
56420;BME280;42323;52.170;7.538;2023-06-22T12:50:57;101164.63;;;25.75;nan
56420;BME280;42323;52.170;7.538;2023-06-22T12:53:23;101150.91;;;25.66;nan
56420;BME280;42323;52.170;7.538;2023-06-22T12:55:50;101142.84;;;25.56;nan
56420;BME280;42323;52.170;7.538;2023-06-22T12:58:16;101160.56;;;25.62;nan
56420;BME280;42323;52.170;7.538;2023-06-22T13:00:43;101151.09;;;25.44;nan
56420;BME280;42323;52.170;7.538;2023-06-22T13:03:10;101165.53;;;25.38;nan
56420;BME280;42323;52.170;7.538;2023-06-22T13:05:36;101162.34;;;25.36;nan
56420;BME280;42323;52.170;7.538;2023-06-22T13:08:04;101153.94;;;25.22;nan
56420;BME280;42323;52.170;7.538;2023-06-22T13:10:31;101144.16;;;25.01;nan
56420;BME280;42323;52.170;7.538;2023-06-22T13:12:59;101152.19;;;25.01;nan
56420;BME280;42323;52.170;7.538;2023-06-22T13:15:29;101165.03;;;24.99;nan
56420;BME280;42323;52.170;7.538;2023-06-22T13:20:28;101156.38;;;24.87;nan
56420;BME280;42323;52.170;7.538;2023-06-22T13:22:55;101133.72;;;24.62;nan
56420;BME280;42323;52.170;7.538;2023-06-22T13:25:23;101145.09;;;24.47;nan
56420;BME280;42323;52.170;7.538;2023-06-22T13:27:52;101144.41;;;24.30;nan
56420;BME280;42323;52.170;7.538;2023-06-22T13:30:19;101141.63;;;24.20;nan
56420;BME280;42323;52.170;7.538;2023-06-22T13:32:46;101123.47;;;23.95;nan
56420;BME280;42323;52.170;7.538;2023-06-22T13:35:15;101131.94;;;23.87;nan
56420;BME280;42323;52.170;7.538;2023-06-22T13:37:42;101098.13;;;23.53;nan